Time;durP1;ratioP1;P1;durP2;ratioP2;P2;SDS_P1;SDS_P2;PMS_P1;PMS_P2;Temp;Humidity;BMP_temperature;BMP_pressure;BME280_temperature;BME280_humidity;BME280_pressure;Samples;Min_cycle;Max_cycle;Signal;HPM_P1;HPM_P2
2024/04/11 00:02:05;;;;;;;8.87;7.60;;;;;;;;;;5540503;25;20529;-82
2024/04/11 00:04:33;;;;;;;9.00;8.10;;;;;;;;;;5537943;25;20461;-82
2024/04/11 00:06:59;;;;;;;9.40;8.20;;;;;;;;;;5532744;25;20279;-83
2024/04/11 00:09:27;;;;;;;9.10;8.20;;;;;;;;;;5539118;25;20472;-83
2024/04/11 00:11:52;;;;;;;8.50;7.80;;;;;;;;;;5537827;25;20228;-82
2024/04/11 00:14:24;;;;;;;12.37;7.67;;;;;;;;;;5542477;25;20518;-82
2024/04/11 00:16:49;;;;;;;9.17;7.30;;;;;;;;;;5549106;25;20231;-82
2024/04/11 00:19:18;;;;;;;7.83;6.43;;;;;;;;;;5544103;25;20513;-82
2024/04/11 00:21:43;;;;;;;7.70;7.20;;;;;;;;;;5555052;25;20236;-82
2024/04/11 00:24:11;;;;;;;8.27;7.57;;;;;;;;;;5533356;25;20461;-82
2024/04/11 00:26:37;;;;;;;8.20;7.40;;;;;;;;;;5548189;25;20268;-82
2024/04/11 00:29:05;;;;;;;7.87;7.17;;;;;;;;;;5551939;25;20528;-81
2024/04/11 00:31:34;;;;;;;7.63;6.93;;;;;;;;;;5538277;25;20453;-83
2024/04/11 00:36:44;;;;;;;11.30;7.90;;;;;;;;;;5547414;25;20554;-82
2024/04/11 00:39:10;;;;;;;9.70;7.30;;;;;;;;;;5542662;25;20924;-82
2024/04/11 00:41:38;;;;;;;8.00;7.20;;;;;;;;;;5547971;25;20825;-82
2024/04/11 00:44:04;;;;;;;8.50;7.83;;;;;;;;;;5542135;25;20465;-82
2024/04/11 00:46:32;;;;;;;8.20;6.90;;;;;;;;;;5540634;25;20521;-82
2024/04/11 00:49:00;;;;;;;8.10;7.40;;;;;;;;;;5556451;25;20292;-82
2024/04/11 00:51:29;;;;;;;12.03;6.50;;;;;;;;;;5554858;25;20517;-82
2024/04/11 00:53:55;;;;;;;6.40;5.80;;;;;;;;;;5536520;25;20504;-82
2024/04/11 00:56:23;;;;;;;8.53;7.63;;;;;;;;;;5557535;25;20850;-82
2024/04/11 00:58:48;;;;;;;8.03;7.43;;;;;;;;;;5552036;25;20468;-82
2024/04/11 01:01:17;;;;;;;7.23;6.60;;;;;;;;;;5548495;25;20897;-82
2024/04/11 01:03:44;;;;;;;7.53;6.93;;;;;;;;;;5547950;25;20231;-80
2024/04/11 01:06:17;;;;;;;9.47;6.63;;;;;;;;;;5546591;25;20524;-83
2024/04/11 01:08:46;;;;;;;7.87;7.37;;;;;;;;;;5542811;25;20464;-81
2024/04/11 01:11:14;;;;;;;7.67;6.33;;;;;;;;;;5548987;25;20465;-82
2024/04/11 01:13:39;;;;;;;6.97;6.10;;;;;;;;;;5549008;25;20520;-80
2024/04/11 01:16:08;;;;;;;8.37;6.33;;;;;;;;;;5550799;25;20448;-80
2024/04/11 01:18:34;;;;;;;7.80;7.20;;;;;;;;;;5553493;25;20497;-81
2024/04/11 01:21:02;;;;;;;7.33;6.83;;;;;;;;;;5545531;25;20467;-81
2024/04/11 01:23:30;;;;;;;7.93;6.60;;;;;;;;;;5537742;25;20396;-81
2024/04/11 01:25:58;;;;;;;8.50;6.57;;;;;;;;;;5534060;25;20580;-81
2024/04/11 01:28:24;;;;;;;7.47;6.87;;;;;;;;;;5549944;25;20459;-81
2024/04/11 01:30:52;;;;;;;6.97;6.30;;;;;;;;;;5539375;25;20549;-81
2024/04/11 01:33:21;;;;;;;6.70;6.10;;;;;;;;;;5546356;25;20275;-81
2024/04/11 01:35:49;;;;;;;7.87;7.17;;;;;;;;;;5539415;25;20469;-82
2024/04/11 01:38:15;;;;;;;8.30;7.50;;;;;;;;;;5551244;25;20455;-82
2024/04/11 01:40:48;;;;;;;7.23;6.73;;;;;;;;;;5561165;25;20521;-82
2024/04/11 01:43:14;;;;;;;8.40;7.60;;;;;;;;;;5538084;25;20725;-82
2024/04/11 01:45:42;;;;;;;7.40;6.90;;;;;;;;;;5547527;25;20525;-82
2024/04/11 01:48:08;;;;;;;8.17;7.37;;;;;;;;;;5544524;25;20457;-82
2024/04/11 01:50:39;;;;;;;7.63;6.70;;;;;;;;;;5549747;25;20521;-83
2024/04/11 01:53:05;;;;;;;11.20;6.70;;;;;;;;;;5554011;25;20291;-81
2024/04/11 01:55:33;;;;;;;7.80;7.10;;;;;;;;;;5558414;25;20447;-81
2024/04/11 01:58:02;;;;;;;12.00;6.53;;;;;;;;;;5548295;25;20232;-82
2024/04/11 02:00:36;;;;;;;8.17;7.60;;;;;;;;;;5547144;25;20453;-82
2024/04/11 02:03:04;;;;;;;7.93;7.20;;;;;;;;;;5559683;25;20464;-82
2024/04/11 02:05:34;;;;;;;9.03;8.17;;;;;;;;;;5551302;25;20472;-81
2024/04/11 02:08:01;;;;;;;8.10;6.30;;;;;;;;;;5538597;25;20460;-83
2024/04/11 02:10:30;;;;;;;10.23;6.03;;;;;;;;;;5551709;25;20850;-83
2024/04/11 02:12:56;;;;;;;8.50;7.20;;;;;;;;;;5547581;25;20623;-82
2024/04/11 02:15:27;;;;;;;8.97;7.37;;;;;;;;;;5552493;25;20453;-82
2024/04/11 02:17:53;;;;;;;7.90;7.37;;;;;;;;;;5544023;25;20445;-83
2024/04/11 02:20:21;;;;;;;7.47;6.83;;;;;;;;;;5555554;25;20525;-82
2024/04/11 02:22:46;;;;;;;7.77;7.07;;;;;;;;;;5539262;25;20262;-83
2024/04/11 02:25:16;;;;;;;8.07;7.37;;;;;;;;;;5541167;25;20461;-82
2024/04/11 02:27:42;;;;;;;6.90;6.30;;;;;;;;;;5549111;25;21558;-83
2024/04/11 02:30:11;;;;;;;8.77;7.40;;;;;;;;;;5545851;25;20671;-82
2024/04/11 02:32:41;;;;;;;8.20;7.60;;;;;;;;;;5536380;25;20524;-81
2024/04/11 02:35:11;;;;;;;9.13;8.17;;;;;;;;;;5537428;25;20961;-82
2024/04/11 02:37:37;;;;;;;8.57;7.80;;;;;;;;;;5547092;25;20467;-82
2024/04/11 02:40:07;;;;;;;7.43;6.83;;;;;;;;;;5547630;25;20481;-82
2024/04/11 02:42:33;;;;;;;14.20;7.80;;;;;;;;;;5558048;25;20231;-82
2024/04/11 02:45:02;;;;;;;9.23;8.47;;;;;;;;;;5546759;25;20469;-82
2024/04/11 02:47:28;;;;;;;7.70;6.90;;;;;;;;;;5542063;25;21089;-82
2024/04/11 02:49:58;;;;;;;8.20;7.47;;;;;;;;;;5538915;25;20469;-82
2024/04/11 02:52:24;;;;;;;8.20;7.47;;;;;;;;;;5545069;25;20232;-82
2024/04/11 02:54:52;;;;;;;8.93;8.17;;;;;;;;;;5543981;25;20540;-82
2024/04/11 02:57:18;;;;;;;8.73;7.83;;;;;;;;;;5536349;25;20236;-82
2024/04/11 02:59:47;;;;;;;10.00;8.70;;;;;;;;;;5535802;25;20562;-82
2024/04/11 03:02:13;;;;;;;10.53;8.30;;;;;;;;;;5543252;25;20224;-81
2024/04/11 03:04:43;;;;;;;8.20;7.50;;;;;;;;;;5551606;25;20580;-82
2024/04/11 03:07:11;;;;;;;7.97;7.33;;;;;;;;;;5546933;25;20465;-82
2024/04/11 03:09:39;;;;;;;8.23;7.50;;;;;;;;;;5546196;25;20460;-82
2024/04/11 03:12:05;;;;;;;9.73;7.80;;;;;;;;;;5535989;25;20625;-82
2024/04/11 03:14:33;;;;;;;8.10;7.20;;;;;;;;;;5551237;25;20456;-82
2024/04/11 03:16:59;;;;;;;7.40;6.67;;;;;;;;;;5543136;25;20270;-82
2024/04/11 03:19:27;;;;;;;7.80;7.20;;;;;;;;;;5548279;25;20767;-82
2024/04/11 03:21:53;;;;;;;7.20;6.60;;;;;;;;;;5547836;25;20464;-82
2024/04/11 03:24:24;;;;;;;7.83;7.10;;;;;;;;;;5554266;25;20514;-81
2024/04/11 03:26:49;;;;;;;6.37;5.73;;;;;;;;;;5540559;25;20271;-81
2024/04/11 03:29:17;;;;;;;7.73;6.37;;;;;;;;;;5558973;25;20531;-81
2024/04/11 03:31:43;;;;;;;7.13;6.40;;;;;;;;;;5542043;25;20265;-82
2024/04/11 03:34:11;;;;;;;7.57;6.87;;;;;;;;;;5550783;25;20488;-82
2024/04/11 03:36:38;;;;;;;8.13;7.33;;;;;;;;;;5555483;25;20235;-81
2024/04/11 03:39:11;;;;;;;6.40;6.00;;;;;;;;;;5560275;25;20458;-82
2024/04/11 03:41:40;;;;;;;6.80;6.20;;;;;;;;;;5544266;25;20465;-82
2024/04/11 03:44:09;;;;;;;6.73;6.13;;;;;;;;;;5553130;25;20536;-82
2024/04/11 03:46:37;;;;;;;7.57;6.87;;;;;;;;;;5542712;25;20467;-82
2024/04/11 03:49:06;;;;;;;6.90;6.47;;;;;;;;;;5547693;25;20503;-82
2024/04/11 03:51:38;;;;;;;6.20;5.60;;;;;;;;;;5553728;25;21064;-81
2024/04/11 03:54:04;;;;;;;6.40;5.30;;;;;;;;;;5538487;25;20521;-82
2024/04/11 03:56:33;;;;;;;5.80;5.43;;;;;;;;;;5536696;25;20473;-80
2024/04/11 03:59:01;;;;;;;6.33;5.60;;;;;;;;;;5556187;25;20273;-81
2024/04/11 04:01:30;;;;;;;6.50;6.10;;;;;;;;;;5552635;25;20479;-82
2024/04/11 04:03:56;;;;;;;6.53;5.93;;;;;;;;;;5543028;25;20513;-82
2024/04/11 04:06:25;;;;;;;6.83;6.33;;;;;;;;;;5535815;25;20801;-81
2024/04/11 04:08:51;;;;;;;7.97;6.00;;;;;;;;;;5538209;25;20469;-81
2024/04/11 04:11:20;;;;;;;6.47;5.87;;;;;;;;;;5540933;25;20507;-81
2024/04/11 04:13:45;;;;;;;12.10;6.57;;;;;;;;;;5554829;25;20635;-82
2024/04/11 04:16:18;;;;;;;6.37;5.57;;;;;;;;;;5542460;25;20539;-81
2024/04/11 04:18:46;;;;;;;7.00;5.73;;;;;;;;;;5538792;25;20263;-82
2024/04/11 04:21:14;;;;;;;6.77;5.83;;;;;;;;;;5531882;25;20521;-82
2024/04/11 04:23:42;;;;;;;11.13;5.13;;;;;;;;;;5541141;25;20522;-82
2024/04/11 04:26:14;;;;;;;8.93;5.53;;;;;;;;;;5544711;25;21009;-82
2024/04/11 04:28:40;;;;;;;5.10;4.80;;;;;;;;;;5549655;25;20477;-84
2024/04/11 04:31:20;;;;;;;6.47;5.37;;;;;;;;;;5543464;25;20475;-84
2024/04/11 04:33:47;;;;;;;6.07;5.50;;;;;;;;;;5545851;25;20471;-84
2024/04/11 04:36:16;;;;;;;5.60;5.10;;;;;;;;;;5533667;25;20460;-82
2024/04/11 04:38:44;;;;;;;6.17;5.67;;;;;;;;;;5546180;25;20931;-85
2024/04/11 04:41:12;;;;;;;6.03;5.53;;;;;;;;;;5541658;25;20458;-83
2024/04/11 04:43:39;;;;;;;6.03;5.53;;;;;;;;;;5548118;25;20471;-83
2024/04/11 04:46:08;;;;;;;6.83;5.50;;;;;;;;;;5537698;25;20445;-84
2024/04/11 04:48:37;;;;;;;8.77;6.07;;;;;;;;;;5545347;25;20468;-81
2024/04/11 04:51:05;;;;;;;6.70;6.10;;;;;;;;;;5541771;25;20448;-83
2024/04/11 04:53:32;;;;;;;9.13;4.83;;;;;;;;;;5536748;25;20911;-85
2024/04/11 04:56:00;;;;;;;6.27;5.67;;;;;;;;;;5537953;25;20920;-83
2024/04/11 04:58:28;;;;;;;6.63;6.13;;;;;;;;;;5546333;25;20469;-84
2024/04/11 05:00:54;;;;;;;6.10;5.60;;;;;;;;;;5536469;25;20470;-83
2024/04/11 05:03:24;;;;;;;5.80;5.30;;;;;;;;;;5545596;25;20463;-83
2024/04/11 05:05:54;;;;;;;5.93;5.33;;;;;;;;;;5534749;25;20580;-84
2024/04/11 05:08:23;;;;;;;5.33;4.83;;;;;;;;;;5541525;25;21070;-82
2024/04/11 05:10:53;;;;;;;6.03;4.70;;;;;;;;;;5540746;25;20471;-84
2024/04/11 05:13:26;;;;;;;4.80;4.40;;;;;;;;;;5542557;25;20464;-84
2024/04/11 05:15:55;;;;;;;6.07;5.07;;;;;;;;;;5539664;25;20550;-83
2024/04/11 05:18:24;;;;;;;11.00;5.10;;;;;;;;;;5548505;25;20460;-82
2024/04/11 05:20:52;;;;;;;4.67;4.33;;;;;;;;;;5550591;25;20469;-83
2024/04/11 05:23:20;;;;;;;7.23;4.90;;;;;;;;;;5553752;25;20942;-81
2024/04/11 05:25:46;;;;;;;8.77;5.20;;;;;;;;;;5545839;25;20523;-83
2024/04/11 05:28:16;;;;;;;7.93;4.73;;;;;;;;;;5545320;25;20469;-83
2024/04/11 05:30:43;;;;;;;5.30;4.90;;;;;;;;;;5544304;25;20947;-82
2024/04/11 05:33:13;;;;;;;6.20;4.87;;;;;;;;;;5540605;25;20469;-80
2024/04/11 05:35:39;;;;;;;6.43;5.57;;;;;;;;;;5531616;25;20560;-81
2024/04/11 05:38:10;;;;;;;5.27;4.87;;;;;;;;;;5545439;25;20463;-81
2024/04/11 05:40:36;;;;;;;8.27;5.10;;;;;;;;;;5539713;25;21087;-82
2024/04/11 05:43:06;;;;;;;7.40;5.80;;;;;;;;;;5553329;25;20472;-82
2024/04/11 05:45:33;;;;;;;6.07;5.43;;;;;;;;;;5563128;25;20459;-81
2024/04/11 05:48:03;;;;;;;8.63;5.63;;;;;;;;;;5558344;25;20506;-82
2024/04/11 05:50:29;;;;;;;9.40;5.60;;;;;;;;;;5547233;25;21005;-85
2024/04/11 05:52:58;;;;;;;5.70;5.30;;;;;;;;;;5543915;25;20535;-82
2024/04/11 05:55:26;;;;;;;5.83;5.33;;;;;;;;;;5555251;25;20224;-82
2024/04/11 05:57:54;;;;;;;6.43;5.50;;;;;;;;;;5555540;25;20911;-81
2024/04/11 06:00:22;;;;;;;6.60;5.53;;;;;;;;;;5566607;25;20513;-79
2024/04/11 06:02:50;;;;;;;6.90;4.90;;;;;;;;;;5556752;25;20540;-80
2024/04/11 06:05:15;;;;;;;6.00;5.50;;;;;;;;;;5543325;25;20517;-83
2024/04/11 06:07:44;;;;;;;6.67;5.60;;;;;;;;;;5558774;25;20465;-82
2024/04/11 06:10:11;;;;;;;5.40;5.00;;;;;;;;;;5549434;25;21020;-80
2024/04/11 06:12:42;;;;;;;5.77;5.37;;;;;;;;;;5554874;25;20453;-81
2024/04/11 06:15:11;;;;;;;5.63;5.13;;;;;;;;;;5552224;25;21072;-81
2024/04/11 06:17:41;;;;;;;6.23;5.37;;;;;;;;;;5557549;25;20471;-81
2024/04/11 06:20:15;;;;;;;6.73;5.50;;;;;;;;;;5548543;25;20456;-81
2024/04/11 06:22:47;;;;;;;10.80;5.30;;;;;;;;;;5552855;25;20457;-82
2024/04/11 06:25:12;;;;;;;6.20;5.70;;;;;;;;;;5559813;25;20968;-80
2024/04/11 06:27:44;;;;;;;9.37;5.60;;;;;;;;;;5544004;25;20442;-80
2024/04/11 06:30:14;;;;;;;5.80;5.30;;;;;;;;;;5560461;25;20501;-80
2024/04/11 06:32:42;;;;;;;5.70;5.20;;;;;;;;;;5554398;25;20880;-81
2024/04/11 06:35:08;;;;;;;6.57;5.70;;;;;;;;;;5545535;25;20597;-81
2024/04/11 06:37:37;;;;;;;5.93;5.17;;;;;;;;;;5536731;25;20840;-80
2024/04/11 06:40:11;;;;;;;5.37;4.97;;;;;;;;;;5560581;25;20473;-81
2024/04/11 06:42:46;;;;;;;6.27;5.30;;;;;;;;;;5553537;25;20506;-81
2024/04/11 06:45:16;;;;;;;5.67;5.20;;;;;;;;;;5538334;25;20480;-80
2024/04/11 06:47:45;;;;;;;6.60;5.60;;;;;;;;;;5553342;25;20514;-80
2024/04/11 06:50:10;;;;;;;6.83;6.23;;;;;;;;;;5540264;25;20517;-82
2024/04/11 06:52:39;;;;;;;9.57;5.87;;;;;;;;;;5540355;25;20461;-79
2024/04/11 06:55:05;;;;;;;8.30;6.00;;;;;;;;;;5563908;25;20227;-81
2024/04/11 06:57:36;;;;;;;5.97;4.80;;;;;;;;;;5539610;25;20469;-80
2024/04/11 07:00:02;;;;;;;6.47;5.97;;;;;;;;;;5552729;25;21365;-81
2024/04/11 07:02:35;;;;;;;5.40;5.00;;;;;;;;;;5552553;25;20464;-78
2024/04/11 07:05:02;;;;;;;5.67;5.27;;;;;;;;;;5552823;25;20297;-79
2024/04/11 07:07:35;;;;;;;6.13;5.67;;;;;;;;;;5546273;25;20513;-80
2024/04/11 07:10:10;;;;;;;5.63;5.23;;;;;;;;;;5541541;25;21012;-78
2024/04/11 07:12:41;;;;;;;10.40;5.67;;;;;;;;;;5545625;25;20464;-80
2024/04/11 07:15:10;;;;;;;5.97;5.47;;;;;;;;;;5555236;25;20451;-78
2024/04/11 07:17:42;;;;;;;6.07;5.20;;;;;;;;;;5556845;25;20553;-80
2024/04/11 07:20:09;;;;;;;6.03;5.43;;;;;;;;;;5557202;25;20541;-81
2024/04/11 07:22:44;;;;;;;6.87;5.53;;;;;;;;;;5536823;25;20465;-80
2024/04/11 07:25:09;;;;;;;5.23;4.83;;;;;;;;;;5545514;25;20460;-80
2024/04/11 07:27:40;;;;;;;7.73;6.90;;;;;;;;;;5532964;25;20517;-80
2024/04/11 07:30:11;;;;;;;6.30;5.73;;;;;;;;;;5540207;25;20236;-81
2024/04/11 07:32:42;;;;;;;5.93;5.30;;;;;;;;;;5541790;25;20625;-81
2024/04/11 07:35:14;;;;;;;5.50;5.17;;;;;;;;;;5549946;25;20868;-80
2024/04/11 07:37:43;;;;;;;6.73;6.23;;;;;;;;;;5557771;25;20954;-81
2024/04/11 07:40:27;;;;;;;6.80;5.83;;;;;;;;;;5551714;25;20466;-80
2024/04/11 07:42:57;;;;;;;6.20;5.60;;;;;;;;;;5541453;25;20469;-79
2024/04/11 07:45:25;;;;;;;5.90;5.50;;;;;;;;;;5557756;25;20463;-81
2024/04/11 07:47:58;;;;;;;7.63;6.23;;;;;;;;;;5539069;25;20540;-81
2024/04/11 07:50:26;;;;;;;6.03;5.53;;;;;;;;;;5539690;25;20534;-80
2024/04/11 07:52:57;;;;;;;6.30;5.77;;;;;;;;;;5555969;25;20533;-82
2024/04/11 07:55:23;;;;;;;6.53;5.53;;;;;;;;;;5557756;25;20528;-81
2024/04/11 07:57:51;;;;;;;6.23;5.70;;;;;;;;;;5562090;25;20887;-79
2024/04/11 08:00:20;;;;;;;8.23;6.40;;;;;;;;;;5552269;25;20496;-82
2024/04/11 08:02:48;;;;;;;6.23;5.20;;;;;;;;;;5550089;25;20508;-80
2024/04/11 08:05:16;;;;;;;5.70;4.67;;;;;;;;;;5542836;25;20477;-79
2024/04/11 08:07:45;;;;;;;7.00;6.30;;;;;;;;;;5539901;25;20596;-79
2024/04/11 08:10:13;;;;;;;7.33;6.10;;;;;;;;;;5561825;25;20471;-80
2024/04/11 08:12:41;;;;;;;6.27;5.63;;;;;;;;;;5551614;25;20966;-80
2024/04/11 08:15:07;;;;;;;6.03;5.53;;;;;;;;;;5553567;25;20456;-80
2024/04/11 08:17:37;;;;;;;7.60;6.30;;;;;;;;;;5542009;25;20544;-79
2024/04/11 08:20:12;;;;;;;6.63;5.47;;;;;;;;;;5553505;25;20467;-81
2024/04/11 08:22:43;;;;;;;12.80;5.63;;;;;;;;;;5565096;25;20951;-81
2024/04/11 08:25:09;;;;;;;8.13;6.70;;;;;;;;;;5537458;25;20519;-81
2024/04/11 08:27:37;;;;;;;6.17;5.77;;;;;;;;;;5547227;25;20457;-80
2024/04/11 08:30:05;;;;;;;6.80;5.83;;;;;;;;;;5542109;25;20294;-82
2024/04/11 08:32:34;;;;;;;5.53;5.17;;;;;;;;;;5544208;25;20459;-81
2024/04/11 08:35:00;;;;;;;7.07;5.37;;;;;;;;;;5559678;25;20469;-81
2024/04/11 08:37:29;;;;;;;6.97;6.10;;;;;;;;;;5538777;25;20504;-81
2024/04/11 08:39:57;;;;;;;6.00;5.50;;;;;;;;;;5535175;25;20461;-81
2024/04/11 08:42:28;;;;;;;5.60;4.93;;;;;;;;;;5536202;25;20465;-82
2024/04/11 08:44:57;;;;;;;6.80;5.23;;;;;;;;;;5532211;25;20477;-81
2024/04/11 08:47:26;;;;;;;6.10;5.60;;;;;;;;;;5541184;25;20468;-80
2024/04/11 08:49:52;;;;;;;5.23;4.93;;;;;;;;;;5543772;25;20522;-82
2024/04/11 08:52:24;;;;;;;7.87;5.20;;;;;;;;;;5532261;25;20963;-81
2024/04/11 08:54:49;;;;;;;9.57;5.97;;;;;;;;;;5540557;25;20543;-79
2024/04/11 08:57:20;;;;;;;9.00;6.27;;;;;;;;;;5553119;25;21026;-81
2024/04/11 08:59:46;;;;;;;5.67;5.17;;;;;;;;;;5540952;25;20274;-81
2024/04/11 09:02:15;;;;;;;6.17;5.07;;;;;;;;;;5538864;25;20564;-81
2024/04/11 09:04:40;;;;;;;7.20;5.87;;;;;;;;;;5558921;25;20515;-80
2024/04/11 09:07:20;;;;;;;5.80;5.20;;;;;;;;;;5547676;25;20465;-81
2024/04/11 09:09:46;;;;;;;6.13;5.53;;;;;;;;;;5543329;25;20223;-80
2024/04/11 09:12:16;;;;;;;6.17;5.57;;;;;;;;;;5544020;25;20469;-80
2024/04/11 09:14:45;;;;;;;10.90;5.53;;;;;;;;;;5543578;25;20324;-79
2024/04/11 09:17:14;;;;;;;8.63;6.07;;;;;;;;;;5534653;25;20469;-80
2024/04/11 09:19:40;;;;;;;6.13;5.40;;;;;;;;;;5566025;25;20471;-80
2024/04/11 09:22:11;;;;;;;6.73;5.87;;;;;;;;;;5541797;25;20469;-79
2024/04/11 09:24:38;;;;;;;8.23;5.70;;;;;;;;;;5552720;25;20265;-80
2024/04/11 09:27:07;;;;;;;6.73;5.50;;;;;;;;;;5551701;25;20480;-80
2024/04/11 09:29:35;;;;;;;7.50;4.97;;;;;;;;;;5537141;25;20803;-80
2024/04/11 09:32:07;;;;;;;6.03;5.63;;;;;;;;;;5539497;25;20526;-79
2024/04/11 09:34:35;;;;;;;5.93;5.43;;;;;;;;;;5560587;25;20863;-79
2024/04/11 09:37:05;;;;;;;8.23;5.63;;;;;;;;;;5556042;25;20453;-80
2024/04/11 09:39:45;;;;;;;6.00;5.50;;;;;;;;;;5547664;25;20455;-81
2024/04/11 09:42:17;;;;;;;8.23;5.10;;;;;;;;;;5554413;25;20515;-80
2024/04/11 09:44:46;;;;;;;5.67;5.27;;;;;;;;;;5550579;25;20538;-81
2024/04/11 09:47:19;;;;;;;9.87;5.67;;;;;;;;;;5549389;25;20540;-80
2024/04/11 09:49:53;;;;;;;6.33;5.60;;;;;;;;;;5549989;25;20669;-80
2024/04/11 09:52:23;;;;;;;6.20;5.60;;;;;;;;;;5544116;25;20900;-80
2024/04/11 09:54:51;;;;;;;8.90;5.90;;;;;;;;;;5556043;25;20548;-80
2024/04/11 09:57:21;;;;;;;9.97;5.37;;;;;;;;;;5543811;25;20881;-80
2024/04/11 09:59:47;;;;;;;7.53;4.80;;;;;;;;;;5548396;25;20522;-81
2024/04/11 10:02:18;;;;;;;6.60;4.80;;;;;;;;;;5547099;25;20465;-81
2024/04/11 10:04:44;;;;;;;6.70;4.70;;;;;;;;;;5549503;25;20305;-81
2024/04/11 10:07:15;;;;;;;5.80;5.20;;;;;;;;;;5547789;25;21348;-82
2024/04/11 10:09:47;;;;;;;5.20;4.70;;;;;;;;;;5548037;25;20243;-81
2024/04/11 10:12:19;;;;;;;9.93;5.13;;;;;;;;;;5552606;25;20497;-81
2024/04/11 10:14:48;;;;;;;4.90;4.40;;;;;;;;;;5551691;25;20461;-82
2024/04/11 10:17:18;;;;;;;6.43;4.97;;;;;;;;;;5553612;25;20515;-82
2024/04/11 10:19:47;;;;;;;6.63;5.33;;;;;;;;;;5558572;25;20849;-82
2024/04/11 10:22:24;;;;;;;6.07;4.80;;;;;;;;;;5547412;25;20467;-82
2024/04/11 10:24:50;;;;;;;5.57;5.10;;;;;;;;;;5546503;25;20482;-82
2024/04/11 10:27:20;;;;;;;4.90;4.40;;;;;;;;;;5562463;25;20464;-81
2024/04/11 10:29:47;;;;;;;6.10;4.70;;;;;;;;;;5539891;25;20228;-82
2024/04/11 10:32:21;;;;;;;8.33;5.83;;;;;;;;;;5536942;25;20461;-81
2024/04/11 10:34:52;;;;;;;6.87;4.70;;;;;;;;;;5548907;25;20537;-81
2024/04/11 10:37:24;;;;;;;5.97;5.37;;;;;;;;;;5540597;25;20471;-81
2024/04/11 10:39:54;;;;;;;5.43;4.93;;;;;;;;;;5547778;25;20513;-81
2024/04/11 10:42:27;;;;;;;5.20;4.80;;;;;;;;;;5551026;25;20936;-80
2024/04/11 10:44:53;;;;;;;6.70;5.60;;;;;;;;;;5539792;25;20591;-81
2024/04/11 10:47:25;;;;;;;7.23;4.97;;;;;;;;;;5554675;25;20475;-81
2024/04/11 10:49:51;;;;;;;5.03;4.63;;;;;;;;;;5545279;25;20473;-80
2024/04/11 10:52:21;;;;;;;8.57;5.50;;;;;;;;;;5557262;25;20452;-80
2024/04/11 10:54:50;;;;;;;5.10;4.60;;;;;;;;;;5575707;25;20456;-81
2024/04/11 10:57:19;;;;;;;5.13;4.30;;;;;;;;;;5576768;25;20467;-81
2024/04/11 10:59:50;;;;;;;8.33;5.23;;;;;;;;;;5567392;25;20474;-82
2024/04/11 11:02:19;;;;;;;5.23;4.23;;;;;;;;;;5558785;25;20457;-81
2024/04/11 11:04:50;;;;;;;5.93;4.93;;;;;;;;;;5558400;25;20459;-83
2024/04/11 11:07:21;;;;;;;6.80;5.40;;;;;;;;;;5565878;25;20456;-83
2024/04/11 11:09:51;;;;;;;5.17;4.70;;;;;;;;;;5563479;25;20640;-82
2024/04/11 11:12:23;;;;;;;5.83;5.33;;;;;;;;;;5553015;25;20471;-81
2024/04/11 11:14:49;;;;;;;6.47;5.87;;;;;;;;;;5546526;25;20461;-82
2024/04/11 11:17:19;;;;;;;5.57;5.27;;;;;;;;;;5558449;25;20463;-84
2024/04/11 11:19:49;;;;;;;6.97;5.47;;;;;;;;;;5547789;25;21004;-82
2024/04/11 11:22:18;;;;;;;5.63;5.00;;;;;;;;;;5573744;25;20470;-82
2024/04/11 11:24:44;;;;;;;5.43;4.93;;;;;;;;;;5546356;25;20461;-83
2024/04/11 11:27:12;;;;;;;6.83;5.00;;;;;;;;;;5577379;25;20533;-83
2024/04/11 11:29:42;;;;;;;6.77;4.67;;;;;;;;;;5537973;25;20512;-81
2024/04/11 11:32:18;;;;;;;5.03;4.73;;;;;;;;;;5541679;25;20821;-84
2024/04/11 11:34:44;;;;;;;7.33;4.90;;;;;;;;;;5551681;25;20479;-83
2024/04/11 11:37:21;;;;;;;5.53;5.03;;;;;;;;;;5551169;25;20471;-84
2024/04/11 11:39:50;;;;;;;7.07;4.90;;;;;;;;;;5551360;25;20495;-82
2024/04/11 11:42:23;;;;;;;9.30;5.20;;;;;;;;;;5555615;25;20461;-84
2024/04/11 11:45:08;;;;;;;6.20;5.60;;;;;;;;;;5559861;25;20469;-83
2024/04/11 11:47:37;;;;;;;6.83;6.13;;;;;;;;;;5552325;25;20471;-82
2024/04/11 11:50:07;;;;;;;5.90;5.30;;;;;;;;;;5541590;25;20471;-83
2024/04/11 11:52:39;;;;;;;11.93;6.37;;;;;;;;;;5567630;25;20504;-81
2024/04/11 11:55:05;;;;;;;6.00;5.60;;;;;;;;;;5554561;25;20463;-82
2024/04/11 11:57:39;;;;;;;5.90;5.40;;;;;;;;;;5553930;25;20456;-83
2024/04/11 12:00:18;;;;;;;6.00;5.60;;;;;;;;;;5549597;25;20281;-82
2024/04/11 12:02:50;;;;;;;5.60;5.20;;;;;;;;;;5552917;25;20477;-84
2024/04/11 12:05:16;;;;;;;5.73;4.87;;;;;;;;;;5551790;25;20457;-81
2024/04/11 12:07:50;;;;;;;5.03;4.67;;;;;;;;;;5554261;25;20544;-82
2024/04/11 12:10:16;;;;;;;6.20;4.90;;;;;;;;;;5554531;25;20454;-84
2024/04/11 12:12:48;;;;;;;5.77;5.20;;;;;;;;;;5554738;25;20485;-85
2024/04/11 12:15:14;;;;;;;11.20;5.67;;;;;;;;;;5546226;25;20465;-81
2024/04/11 12:17:43;;;;;;;6.20;5.60;;;;;;;;;;5548823;25;20491;-82
2024/04/11 12:20:15;;;;;;;5.77;5.23;;;;;;;;;;5555549;25;20519;-85
2024/04/11 12:22:44;;;;;;;7.77;5.47;;;;;;;;;;5566079;25;20444;-82
2024/04/11 12:25:13;;;;;;;8.17;5.57;;;;;;;;;;5542924;25;20786;-83
2024/04/11 12:27:43;;;;;;;5.20;4.87;;;;;;;;;;5546376;25;20465;-83
2024/04/11 12:30:09;;;;;;;17.53;6.50;;;;;;;;;;5539212;25;20469;-81
2024/04/11 12:32:40;;;;;;;5.53;5.13;;;;;;;;;;5531375;25;20450;-82
2024/04/11 12:35:05;;;;;;;7.00;6.00;;;;;;;;;;5546503;25;20278;-83
2024/04/11 12:37:36;;;;;;;6.97;6.23;;;;;;;;;;5536840;25;20461;-83
2024/04/11 12:40:06;;;;;;;8.27;6.40;;;;;;;;;;5538995;25;20240;-84
2024/04/11 12:42:38;;;;;;;6.67;5.87;;;;;;;;;;5543232;25;20469;-84
2024/04/11 12:45:07;;;;;;;6.40;5.90;;;;;;;;;;5535905;25;20533;-85
2024/04/11 12:47:48;;;;;;;7.63;6.40;;;;;;;;;;5539994;25;20557;-82
2024/04/11 12:50:13;;;;;;;9.10;6.33;;;;;;;;;;5541231;25;20464;-85
2024/04/11 12:52:44;;;;;;;7.30;6.67;;;;;;;;;;5547768;25;21057;-83
2024/04/11 12:55:10;;;;;;;7.43;6.67;;;;;;;;;;5535739;25;20236;-85
2024/04/11 12:57:41;;;;;;;6.77;6.10;;;;;;;;;;5541119;25;20800;-83
2024/04/11 13:00:09;;;;;;;7.83;7.13;;;;;;;;;;5547894;25;20274;-83
2024/04/11 13:02:39;;;;;;;7.03;6.07;;;;;;;;;;5559706;25;20475;-84
2024/04/11 13:05:05;;;;;;;6.80;6.23;;;;;;;;;;5552972;25;20509;-82
2024/04/11 13:07:34;;;;;;;7.30;6.57;;;;;;;;;;5537725;25;20453;-84
2024/04/11 13:10:07;;;;;;;6.90;6.20;;;;;;;;;;5553907;25;20461;-83
2024/04/11 13:12:43;;;;;;;7.40;6.20;;;;;;;;;;5557891;25;20469;-87
2024/04/11 13:15:12;;;;;;;7.40;6.60;;;;;;;;;;5550374;25;20516;-85
2024/04/11 13:17:41;;;;;;;7.67;6.87;;;;;;;;;;5548282;25;20528;-86
2024/04/11 13:20:16;;;;;;;6.40;5.80;;;;;;;;;;5543239;25;20445;-82
2024/04/11 13:22:48;;;;;;;7.70;6.20;;;;;;;;;;5559743;25;20463;-83
2024/04/11 13:25:17;;;;;;;7.43;6.77;;;;;;;;;;5544728;25;20531;-85
2024/04/11 13:27:46;;;;;;;7.63;7.10;;;;;;;;;;5541109;25;20472;-84
2024/04/11 13:30:15;;;;;;;6.63;6.13;;;;;;;;;;5542018;25;20764;-85
2024/04/11 13:32:45;;;;;;;6.83;6.13;;;;;;;;;;5540453;25;21337;-84
2024/04/11 13:35:13;;;;;;;6.67;6.07;;;;;;;;;;5553979;25;20487;-82
2024/04/11 13:37:47;;;;;;;6.33;5.73;;;;;;;;;;5543441;25;20587;-84
2024/04/11 13:43:00;;;;;;;7.00;6.50;;;;;;;;;;5548309;25;20521;-82
2024/04/11 13:45:35;;;;;;;8.60;7.90;;;;;;;;;;5564901;25;20463;-83
2024/04/11 13:48:03;;;;;;;8.10;7.40;;;;;;;;;;5551938;25;20465;-86
2024/04/11 13:50:43;;;;;;;8.03;7.23;;;;;;;;;;5553548;25;20584;-86
2024/04/11 13:53:14;;;;;;;7.70;6.10;;;;;;;;;;5545274;25;20469;-85
2024/04/11 13:55:41;;;;;;;7.43;6.93;;;;;;;;;;5553120;25;20529;-88
2024/04/11 13:58:10;;;;;;;7.47;6.87;;;;;;;;;;5550694;25;20989;-87
2024/04/11 14:00:39;;;;;;;11.43;7.37;;;;;;;;;;5541879;25;20574;-86
2024/04/11 14:03:22;;;;;;;7.53;6.83;;;;;;;;;;5559781;25;20475;-86
2024/04/11 14:06:06;;;;;;;9.23;8.30;;;;;;;;;;5552931;25;20544;-86
2024/04/11 14:08:34;;;;;;;9.87;7.83;;;;;;;;;;5547337;25;20471;-85
2024/04/11 14:11:04;;;;;;;8.00;7.30;;;;;;;;;;5554391;25;20540;-85
2024/04/11 14:13:41;;;;;;;7.73;7.17;;;;;;;;;;5554180;25;20452;-90
2024/04/11 14:16:10;;;;;;;7.43;6.83;;;;;;;;;;5544353;25;20511;-87
2024/04/11 14:18:39;;;;;;;7.10;6.40;;;;;;;;;;5548603;25;21108;-87
2024/04/11 14:21:17;;;;;;;7.77;6.87;;;;;;;;;;5543621;25;20472;-87
2024/04/11 14:23:52;;;;;;;8.53;6.97;;;;;;;;;;5539583;25;20955;-88
2024/04/11 14:26:24;;;;;;;9.43;6.70;;;;;;;;;;5545829;25;20464;-86
2024/04/11 14:28:54;;;;;;;12.60;7.07;;;;;;;;;;5554649;25;20558;-87
2024/04/11 14:31:30;;;;;;;7.87;6.50;;;;;;;;;;5553078;25;20469;-85
2024/04/11 14:39:36;;;;;;;7.20;6.60;;;;;;;;;;5551903;25;20501;-86
2024/04/11 14:42:04;;;;;;;9.07;8.17;;;;;;;;;;5555235;25;20461;-85
2024/04/11 14:44:36;;;;;;;8.40;7.50;;;;;;;;;;5532953;25;20865;-81
2024/04/11 14:47:06;;;;;;;8.80;8.00;;;;;;;;;;5539451;25;20465;-81
2024/04/11 14:49:34;;;;;;;9.50;8.60;;;;;;;;;;5541535;25;20573;-82
2024/04/11 14:52:04;;;;;;;8.70;7.97;;;;;;;;;;5540305;25;20520;-83
2024/04/11 14:54:35;;;;;;;9.23;8.20;;;;;;;;;;5544553;25;20550;-82
2024/04/11 14:57:08;;;;;;;9.87;9.10;;;;;;;;;;5535598;25;20531;-84
2024/04/11 14:59:41;;;;;;;10.50;8.90;;;;;;;;;;5546886;25;20469;-80
2024/04/11 15:02:16;;;;;;;9.70;8.73;;;;;;;;;;5549442;25;20516;-82
2024/04/11 15:04:44;;;;;;;11.77;9.20;;;;;;;;;;5544945;25;20474;-81
2024/04/11 15:07:12;;;;;;;8.87;8.27;;;;;;;;;;5554286;25;20843;-82